createdAt,value
2018-07-27T00:00:59.155Z,3.20
2018-07-27T00:03:29.014Z,3.30
2018-07-27T00:05:59.038Z,3.37
2018-07-27T00:08:28.632Z,3.47
2018-07-27T00:11:02.572Z,3.50
2018-07-27T00:13:32.346Z,3.50
2018-07-27T00:16:01.647Z,3.83
2018-07-27T00:18:31.417Z,4.13
2018-07-27T00:21:01.921Z,4.27
2018-07-27T00:23:32.410Z,4.23
2018-07-27T00:26:02.553Z,3.80
2018-07-27T00:28:32.159Z,3.83
2018-07-27T00:31:02.414Z,3.63
2018-07-27T00:33:32.084Z,3.60
2018-07-27T00:36:02.324Z,4.03
2018-07-27T00:38:32.956Z,3.30
2018-07-27T00:41:03.742Z,3.37
2018-07-27T00:43:34.172Z,3.40
2018-07-27T00:46:04.028Z,3.97
2018-07-27T00:48:33.740Z,4.50
2018-07-27T00:51:03.329Z,4.07
2018-07-27T00:53:33.338Z,4.60
2018-07-27T00:56:03.000Z,4.30
2018-07-27T00:58:32.966Z,3.60
2018-07-27T01:01:02.955Z,3.60
2018-07-27T01:03:32.336Z,3.50
2018-07-27T01:06:03.084Z,3.60
2018-07-27T01:08:32.938Z,3.40
2018-07-27T01:11:03.172Z,3.60
2018-07-27T01:13:34.015Z,5.77
2018-07-27T01:16:03.493Z,3.60
2018-07-27T01:18:32.970Z,3.70
2018-07-27T01:21:02.551Z,3.60
2018-07-27T01:23:32.625Z,3.27
2018-07-27T01:26:02.348Z,3.80
2018-07-27T01:28:32.035Z,3.70
2018-07-27T01:31:01.845Z,3.87
2018-07-27T01:33:31.566Z,3.90
2018-07-27T01:36:01.804Z,3.63
2018-07-27T01:38:31.554Z,3.40
2018-07-27T01:41:02.719Z,4.07
2018-07-27T01:43:33.074Z,3.70
2018-07-27T01:46:02.486Z,3.77
2018-07-27T01:48:36.039Z,3.70
2018-07-27T01:51:05.474Z,3.87
2018-07-27T01:53:35.847Z,3.73
2018-07-27T01:56:05.609Z,3.43
2018-07-27T01:58:35.270Z,3.80
2018-07-27T02:01:05.234Z,3.90
2018-07-27T02:03:35.457Z,3.80
2018-07-27T02:06:05.252Z,4.27
2018-07-27T02:08:35.397Z,3.53
2018-07-27T02:11:04.775Z,3.90
2018-07-27T02:13:34.287Z,4.00
2018-07-27T02:16:04.153Z,3.50
2018-07-27T02:18:34.025Z,3.83
2018-07-27T02:21:03.274Z,4.10
2018-07-27T02:23:32.771Z,3.73
2018-07-27T02:26:03.109Z,3.43
2018-07-27T02:28:32.552Z,3.47
2018-07-27T02:31:02.928Z,3.80
2018-07-27T02:33:34.876Z,3.60
2018-07-27T02:36:04.585Z,3.90
2018-07-27T02:38:34.052Z,3.57
2018-07-27T02:41:03.898Z,3.73
2018-07-27T02:43:33.455Z,3.80
2018-07-27T02:46:03.373Z,3.63
2018-07-27T02:48:34.880Z,3.57
2018-07-27T02:51:04.321Z,3.37
2018-07-27T02:53:33.531Z,3.60
2018-07-27T02:56:03.594Z,3.77
2018-07-27T02:58:35.689Z,3.70
2018-07-27T03:01:04.911Z,3.27
2018-07-27T03:03:34.978Z,3.70
2018-07-27T03:06:04.650Z,3.57
2018-07-27T03:08:35.909Z,3.70
2018-07-27T03:11:05.733Z,3.83
2018-07-27T03:13:35.570Z,3.80
2018-07-27T03:16:05.377Z,3.40
2018-07-27T03:18:35.395Z,2.87
2018-07-27T03:21:05.237Z,3.50
2018-07-27T03:23:34.669Z,3.43
2018-07-27T03:26:05.145Z,3.10
2018-07-27T03:28:36.894Z,3.43
2018-07-27T03:31:06.858Z,3.40
2018-07-27T03:33:36.457Z,3.40
2018-07-27T03:36:07.883Z,3.70
2018-07-27T03:38:37.763Z,3.30
2018-07-27T03:41:09.132Z,3.23
2018-07-27T03:43:39.815Z,3.53
2018-07-27T03:46:09.658Z,3.47
2018-07-27T03:48:39.326Z,3.20
2018-07-27T03:51:08.750Z,3.53
2018-07-27T03:53:40.650Z,3.77
2018-07-27T03:56:10.639Z,3.30
2018-07-27T03:58:40.395Z,3.40
2018-07-27T04:01:09.712Z,3.40
2018-07-27T04:03:39.641Z,3.17
2018-07-27T04:06:09.131Z,3.13
2018-07-27T04:08:40.781Z,3.30
2018-07-27T04:11:10.509Z,3.07
2018-07-27T04:13:40.270Z,3.10
2018-07-27T04:16:10.320Z,3.10
2018-07-27T04:18:40.037Z,3.03
2018-07-27T04:21:09.804Z,3.30
2018-07-27T04:23:39.196Z,3.30
2018-07-27T04:26:08.659Z,3.30
2018-07-27T04:28:38.587Z,3.10
2018-07-27T04:31:12.130Z,3.37
2018-07-27T04:33:42.120Z,3.27
2018-07-27T04:36:13.410Z,3.30
2018-07-27T04:38:42.897Z,3.50
2018-07-27T04:41:12.644Z,3.10
2018-07-27T04:43:42.276Z,3.37
2018-07-27T04:46:12.283Z,3.10
2018-07-27T04:48:41.977Z,3.23
2018-07-27T04:51:11.576Z,2.80
2018-07-27T04:53:42.195Z,2.93
2018-07-27T04:56:12.081Z,3.03
2018-07-27T04:58:43.544Z,2.50
2018-07-27T05:01:13.410Z,3.17
2018-07-27T05:03:43.164Z,3.03
2018-07-27T05:06:12.717Z,2.77
2018-07-27T05:08:47.293Z,2.70
2018-07-27T05:11:16.889Z,3.10
2018-07-27T05:13:46.644Z,2.97
2018-07-27T05:16:16.153Z,3.20
2018-07-27T05:18:46.377Z,3.10
2018-07-27T05:21:16.052Z,3.00
2018-07-27T05:23:46.269Z,2.77
2018-07-27T05:26:16.473Z,3.10
2018-07-27T05:28:46.340Z,2.80
2018-07-27T05:31:16.424Z,2.77
2018-07-27T05:33:46.396Z,2.80
2018-07-27T05:36:16.099Z,2.97
2018-07-27T05:38:46.207Z,3.10
2018-07-27T05:41:16.231Z,2.77
2018-07-27T05:43:45.632Z,2.87
2018-07-27T05:46:15.282Z,2.90
2018-07-27T05:48:46.155Z,2.53
2018-07-27T05:51:15.943Z,3.13
2018-07-27T05:53:47.979Z,2.70
2018-07-27T05:56:17.677Z,3.00
2018-07-27T05:58:47.613Z,2.73
2018-07-27T06:01:17.038Z,2.80
2018-07-27T06:03:46.586Z,2.73
2018-07-27T06:11:16.169Z,2.40
2018-07-27T06:13:45.386Z,2.87
2018-07-27T06:16:15.337Z,2.60
2018-07-27T06:18:45.169Z,2.97
2018-07-27T06:21:15.210Z,2.97
2018-07-27T06:23:44.687Z,3.10
2018-07-27T06:26:14.116Z,3.07
2018-07-27T06:28:45.317Z,2.80
2018-07-27T06:31:14.854Z,3.20
2018-07-27T06:33:44.627Z,2.73
2018-07-27T06:36:14.659Z,3.43
2018-07-27T06:38:44.423Z,3.30
2018-07-27T06:41:13.927Z,3.10
2018-07-27T06:43:43.791Z,3.10
2018-07-27T06:46:17.918Z,3.40
2018-07-27T06:48:48.207Z,3.20
2018-07-27T06:51:18.172Z,3.00
2018-07-27T06:53:47.558Z,3.23
2018-07-27T06:56:17.055Z,3.30
2018-07-27T06:58:47.500Z,3.50
2018-07-27T07:01:17.099Z,3.03
2018-07-27T07:03:46.696Z,3.17
2018-07-27T07:06:16.600Z,3.30
2018-07-27T07:08:47.056Z,3.10
2018-07-27T07:11:16.493Z,4.10
2018-07-27T07:13:46.557Z,3.40
2018-07-27T07:16:16.610Z,3.47
2018-07-27T07:24:32.265Z,3.37
2018-07-27T07:27:01.742Z,3.10
2018-07-27T07:29:31.412Z,3.67
2018-07-27T07:32:01.016Z,3.47
2018-07-27T07:34:30.720Z,3.37
2018-07-27T07:37:00.424Z,3.40
2018-07-27T07:39:30.388Z,3.33
2018-07-27T07:41:59.792Z,3.30
2018-07-27T07:44:29.893Z,3.50
2018-07-27T07:47:00.032Z,3.37
2018-07-27T07:49:29.531Z,3.27
2018-07-27T07:51:59.347Z,3.60
2018-07-27T07:54:29.016Z,2.97
2018-07-27T07:56:58.427Z,3.20
2018-07-27T07:59:27.889Z,2.80
2018-07-27T08:01:57.425Z,2.87
2018-07-27T08:04:28.205Z,2.33
2018-07-27T08:06:57.600Z,2.60
2018-07-27T08:09:27.982Z,2.40
2018-07-27T08:11:57.845Z,2.40
2018-07-27T08:14:27.752Z,2.30
2018-07-27T08:16:58.539Z,2.40
2018-07-27T08:19:28.760Z,2.63
2018-07-27T08:21:59.050Z,2.70
2018-07-27T08:24:29.093Z,2.50
2018-07-27T08:27:04.635Z,2.70
2018-07-27T08:29:41.789Z,2.83
2018-07-27T08:32:12.009Z,2.77
2018-07-27T08:34:41.591Z,3.47
2018-07-27T08:37:11.129Z,3.00
2018-07-27T08:39:41.818Z,2.80
2018-07-27T08:42:11.609Z,2.87
2018-07-27T08:44:42.927Z,3.10
2018-07-27T08:47:12.554Z,3.03
2018-07-27T08:49:41.995Z,2.80
2018-07-27T08:52:11.555Z,3.90
2018-07-27T08:54:41.651Z,3.10
2018-07-27T08:57:11.461Z,3.03
2018-07-27T08:59:40.985Z,2.80
2018-07-27T09:02:10.614Z,3.20
2018-07-27T09:04:39.869Z,2.90
2018-07-27T09:07:09.832Z,3.00
2018-07-27T09:09:39.743Z,2.90
2018-07-27T09:12:11.047Z,2.97
2018-07-27T09:14:40.779Z,3.03
2018-07-27T09:17:10.430Z,3.17
2018-07-27T09:19:40.519Z,3.00
2018-07-27T09:22:10.242Z,3.93
2018-07-27T09:24:39.871Z,3.17
2018-07-27T09:27:09.858Z,2.90
2018-07-27T09:29:39.686Z,3.00
2018-07-27T09:32:09.865Z,3.20
2018-07-27T09:34:39.308Z,3.00
2018-07-27T09:37:09.287Z,3.17
2018-07-27T09:39:39.367Z,3.27
2018-07-27T09:42:08.743Z,3.43
2018-07-27T09:44:39.016Z,3.50
2018-07-27T09:47:08.571Z,3.50
2018-07-27T09:49:37.843Z,3.50
2018-07-27T09:52:07.502Z,3.30
2018-07-27T09:54:37.367Z,3.57
2018-07-27T09:57:07.406Z,3.40
2018-07-27T09:59:37.312Z,3.50
2018-07-27T10:02:07.704Z,3.50
2018-07-27T10:04:38.767Z,3.47
2018-07-27T10:07:08.175Z,3.63
2018-07-27T10:09:37.548Z,3.47
2018-07-27T10:12:09.435Z,3.70
2018-07-27T10:14:39.196Z,4.00
2018-07-27T10:17:10.203Z,3.40
2018-07-27T10:19:40.038Z,3.60
2018-07-27T10:22:10.465Z,3.80
2018-07-27T10:24:44.522Z,3.63
2018-07-27T10:27:15.102Z,4.00
2018-07-27T10:29:45.415Z,3.97
2018-07-27T10:32:15.349Z,3.70
2018-07-27T10:34:45.040Z,3.70
2018-07-27T10:37:17.765Z,3.70
2018-07-27T10:39:47.525Z,3.63
2018-07-27T10:42:17.293Z,3.60
2018-07-27T10:44:46.955Z,4.07
2018-07-27T10:47:16.472Z,3.80
2018-07-27T10:49:46.173Z,3.80
2018-07-27T10:52:16.075Z,3.63
2018-07-27T10:54:45.731Z,3.60
2018-07-27T10:57:15.932Z,3.53
2018-07-27T10:59:45.560Z,3.57
2018-07-27T11:02:15.105Z,3.57
2018-07-27T11:04:45.333Z,3.80
2018-07-27T11:07:14.871Z,3.70
2018-07-27T11:09:44.675Z,3.50
2018-07-27T11:12:14.137Z,3.63
2018-07-27T11:14:44.060Z,3.57
2018-07-27T11:17:13.736Z,3.80
2018-07-27T11:19:43.161Z,3.80
2018-07-27T11:22:12.645Z,3.80
2018-07-27T11:24:42.655Z,3.50
2018-07-27T11:27:12.526Z,3.70
2018-07-27T11:29:42.233Z,3.87
2018-07-27T11:32:11.873Z,3.60
2018-07-27T11:34:41.685Z,3.80
2018-07-27T11:37:11.382Z,3.90
2018-07-27T11:39:41.559Z,3.57
2018-07-27T11:42:15.758Z,3.10
2018-07-27T11:44:46.083Z,3.57
2018-07-27T11:47:16.058Z,3.57
2018-07-27T11:49:49.585Z,3.60
2018-07-27T11:52:19.945Z,3.70
2018-07-27T11:54:49.269Z,3.60
2018-07-27T11:57:19.235Z,3.33
2018-07-27T11:59:49.102Z,3.53
2018-07-27T12:02:18.900Z,3.40
2018-07-27T12:04:48.489Z,3.17
2018-07-27T12:07:19.237Z,3.43
2018-07-27T12:09:49.253Z,3.47
2018-07-27T12:12:18.743Z,3.60
2018-07-27T12:14:49.552Z,3.40
2018-07-27T12:17:19.729Z,3.47
2018-07-27T12:19:49.579Z,3.30
2018-07-27T12:22:19.701Z,3.50
2018-07-27T12:24:51.122Z,3.43
2018-07-27T12:27:21.240Z,3.50
2018-07-27T12:29:52.589Z,3.37
2018-07-27T12:32:23.433Z,3.70
2018-07-27T12:34:53.490Z,3.50
2018-07-27T12:37:26.969Z,3.90
2018-07-27T12:39:58.748Z,3.30
2018-07-27T12:42:29.643Z,3.30
2018-07-27T12:44:59.835Z,3.47
2018-07-27T12:47:35.694Z,3.70
2018-07-27T12:50:05.634Z,3.40
2018-07-27T12:52:34.537Z,3.40
2018-07-27T12:55:04.314Z,3.17
2018-07-27T12:57:33.542Z,3.67
2018-07-27T13:00:02.937Z,3.80
2018-07-27T13:02:32.036Z,3.57
2018-07-27T13:05:01.628Z,3.37
2018-07-27T13:07:30.642Z,3.33
2018-07-27T13:10:05.056Z,3.83
2018-07-27T13:12:35.507Z,3.40
2018-07-27T13:15:06.764Z,3.60
2018-07-27T13:17:36.073Z,3.87
2018-07-27T13:20:06.260Z,3.80
2018-07-27T13:22:35.866Z,3.70
2018-07-27T13:25:05.380Z,3.80
2018-07-27T13:27:34.444Z,3.67
2018-07-27T13:30:03.764Z,3.90
2018-07-27T13:32:33.028Z,3.80
2018-07-27T13:35:02.641Z,3.50
2018-07-27T13:37:34.021Z,3.53
2018-07-27T13:40:04.394Z,3.27
2018-07-27T13:42:36.382Z,3.90
2018-07-27T13:45:06.113Z,3.20
2018-07-27T13:47:35.164Z,3.50
2018-07-27T13:50:05.165Z,3.80
2018-07-27T13:52:34.206Z,3.53
2018-07-27T13:55:03.145Z,3.50
2018-07-27T13:57:32.438Z,3.30
2018-07-27T14:00:01.593Z,3.60
2018-07-27T14:02:30.585Z,3.27
2018-07-27T14:04:59.872Z,3.80
2018-07-27T14:07:29.253Z,3.30
2018-07-27T14:09:58.289Z,3.30
2018-07-27T14:12:28.097Z,3.27
2018-07-27T14:14:58.300Z,3.67
2018-07-27T14:17:27.421Z,3.80
2018-07-27T14:19:56.899Z,5.10
2018-07-27T14:22:26.599Z,3.20
2018-07-27T14:24:55.910Z,3.57
2018-07-27T14:27:25.649Z,3.10
2018-07-27T14:29:55.075Z,3.40
2018-07-27T14:32:24.220Z,3.37
2018-07-27T14:34:53.317Z,3.73
2018-07-27T14:37:22.411Z,3.43
2018-07-27T14:39:51.739Z,3.57
2018-07-27T14:42:20.955Z,3.00
2018-07-27T14:44:50.220Z,3.53
2018-07-27T14:47:19.263Z,3.40
2018-07-27T14:49:48.602Z,3.23
2018-07-27T14:52:17.858Z,3.70
2018-07-27T14:54:46.845Z,3.50
2018-07-27T14:57:15.966Z,3.63
2018-07-27T14:59:45.219Z,3.30
2018-07-27T15:02:14.264Z,3.50
2018-07-27T15:04:43.519Z,3.43
2018-07-27T15:07:19.210Z,3.50
2018-07-27T15:09:48.352Z,3.30
2018-07-27T15:12:17.664Z,3.50
2018-07-27T15:14:46.865Z,3.30
2018-07-27T15:17:16.075Z,3.43
2018-07-27T15:19:45.494Z,3.60
2018-07-27T15:22:14.628Z,3.70
2018-07-27T15:24:43.757Z,3.37
2018-07-27T15:27:12.911Z,3.17
2018-07-27T15:29:42.191Z,3.57
2018-07-27T15:32:11.437Z,3.27
2018-07-27T15:34:40.544Z,3.37
2018-07-27T15:37:09.790Z,3.70
2018-07-27T15:39:40.152Z,3.17
2018-07-27T15:42:09.188Z,3.50
2018-07-27T15:44:38.294Z,3.90
2018-07-27T15:47:07.757Z,3.37
2018-07-27T15:49:36.959Z,3.33
2018-07-27T15:52:06.372Z,3.50
2018-07-27T15:54:35.753Z,3.47
2018-07-27T15:57:05.215Z,3.43
2018-07-27T15:59:35.088Z,3.90
2018-07-27T16:02:05.239Z,3.30
2018-07-27T16:04:34.252Z,3.50
2018-07-27T16:07:03.871Z,3.30
2018-07-27T16:09:32.875Z,3.10
2018-07-27T16:12:01.930Z,3.33
2018-07-27T16:14:31.373Z,3.17
2018-07-27T16:17:00.931Z,3.40
2018-07-27T16:19:32.362Z,3.50
2018-07-27T16:22:02.008Z,3.20
2018-07-27T16:24:31.798Z,3.00
2018-07-27T16:27:01.180Z,3.33
2018-07-27T16:29:30.419Z,2.83
2018-07-27T16:31:59.766Z,3.37
2018-07-27T16:34:29.815Z,4.67
2018-07-27T16:36:59.119Z,3.53
2018-07-27T16:39:28.255Z,3.37
2018-07-27T16:41:57.479Z,3.60
2018-07-27T16:44:26.809Z,3.40
2018-07-27T16:46:55.924Z,3.50
2018-07-27T16:49:25.706Z,3.07
2018-07-27T16:51:54.926Z,3.40
2018-07-27T16:54:23.954Z,3.67
2018-07-27T16:56:53.385Z,3.23
2018-07-27T16:59:22.742Z,3.30
2018-07-27T17:01:51.872Z,3.60
2018-07-27T17:04:21.186Z,3.20
2018-07-27T17:06:50.282Z,3.70
2018-07-27T17:09:19.649Z,3.97
2018-07-27T17:11:48.877Z,3.93
2018-07-27T17:14:18.255Z,3.10
2018-07-27T17:16:47.337Z,3.27
2018-07-27T17:19:16.855Z,3.17
2018-07-27T17:21:46.677Z,3.73
2018-07-27T17:24:15.731Z,3.83
2018-07-27T17:26:44.932Z,3.63
2018-07-27T17:29:14.262Z,3.27
2018-07-27T17:31:43.646Z,3.43
2018-07-27T17:34:13.252Z,3.43
2018-07-27T17:36:42.580Z,3.97
2018-07-27T17:39:12.470Z,3.47
2018-07-27T17:41:42.190Z,3.50
2018-07-27T17:44:11.918Z,3.60
2018-07-27T17:46:41.070Z,3.50
2018-07-27T17:49:11.175Z,3.77
2018-07-27T17:51:40.429Z,3.80
2018-07-27T17:54:10.566Z,4.27
2018-07-27T17:56:39.917Z,4.37
2018-07-27T17:59:09.211Z,4.53
2018-07-27T18:01:38.436Z,4.67
2018-07-27T18:04:07.634Z,5.47
2018-07-27T18:06:37.465Z,4.20
2018-07-27T18:09:10.082Z,4.00
2018-07-27T18:11:39.733Z,4.20
2018-07-27T18:14:08.780Z,4.60
2018-07-27T18:16:38.251Z,4.40
2018-07-27T18:19:07.688Z,4.60
2018-07-27T18:21:37.127Z,4.60
2018-07-27T18:24:06.850Z,4.60
2018-07-27T18:26:36.439Z,4.40
2018-07-27T18:29:05.656Z,4.27
2018-07-27T18:31:35.090Z,4.20
2018-07-27T18:34:04.654Z,3.70
2018-07-27T18:36:33.748Z,4.37
2018-07-27T18:39:03.215Z,4.53
2018-07-27T18:41:32.606Z,4.20
2018-07-27T18:44:01.605Z,4.33
2018-07-27T18:46:30.639Z,4.13
2018-07-27T18:49:00.035Z,4.90
2018-07-27T18:51:29.051Z,4.80
2018-07-27T18:53:58.388Z,4.73
2018-07-27T18:56:27.677Z,4.37
2018-07-27T18:58:56.835Z,4.73
2018-07-27T19:01:26.076Z,4.10
2018-07-27T19:03:55.391Z,4.40
2018-07-27T19:06:24.492Z,4.47
2018-07-27T19:08:53.918Z,4.23
2018-07-27T19:11:23.229Z,4.47
2018-07-27T19:13:52.343Z,4.17
2018-07-27T19:16:21.492Z,4.80
2018-07-27T19:18:50.758Z,4.40
2018-07-27T19:21:20.092Z,4.50
2018-07-27T19:23:49.585Z,4.70
2018-07-27T19:26:18.733Z,4.67
2018-07-27T19:28:47.789Z,4.43
2018-07-27T19:31:17.194Z,4.67
2018-07-27T19:33:46.559Z,4.37
2018-07-27T19:36:15.707Z,4.63
2018-07-27T19:38:45.171Z,4.63
2018-07-27T19:41:14.448Z,4.73
2018-07-27T19:43:43.445Z,4.80
2018-07-27T19:46:12.734Z,4.47
2018-07-27T19:48:42.030Z,4.57
2018-07-27T19:51:11.087Z,4.77
2018-07-27T19:53:40.336Z,4.93
2018-07-27T19:56:09.674Z,4.67
2018-07-27T19:58:38.896Z,4.83
2018-07-27T20:01:08.259Z,5.10
2018-07-27T20:03:37.555Z,4.70
2018-07-27T20:06:06.705Z,5.23
2018-07-27T20:08:36.064Z,4.77
2018-07-27T20:11:05.583Z,5.70
2018-07-27T20:13:34.797Z,5.83
2018-07-27T20:16:04.667Z,5.30
2018-07-27T20:18:34.265Z,5.17
2018-07-27T20:21:03.544Z,4.87
2018-07-27T20:23:32.702Z,5.33
2018-07-27T20:26:02.005Z,5.03
2018-07-27T20:28:30.980Z,4.73
2018-07-27T20:31:00.367Z,4.90
2018-07-27T20:33:29.777Z,5.53
2018-07-27T20:35:58.874Z,5.10
2018-07-27T20:38:28.399Z,5.00
2018-07-27T20:40:57.663Z,4.80
2018-07-27T20:43:27.208Z,5.20
2018-07-27T20:45:56.506Z,5.07
2018-07-27T20:48:27.387Z,5.20
2018-07-27T20:50:56.734Z,5.50
2018-07-27T20:53:25.855Z,5.27
2018-07-27T20:55:55.306Z,5.07
2018-07-27T20:58:24.255Z,5.30
2018-07-27T21:00:53.300Z,5.40
2018-07-27T21:03:22.407Z,5.43
2018-07-27T21:05:51.336Z,5.60
2018-07-27T21:09:23.325Z,5.80
2018-07-27T21:11:52.446Z,5.57
2018-07-27T21:14:21.785Z,5.20
2018-07-27T21:16:50.993Z,5.20
2018-07-27T21:19:20.131Z,5.93
2018-07-27T21:21:49.550Z,5.50
2018-07-27T21:24:19.040Z,5.60
2018-07-27T21:26:48.051Z,5.77
2018-07-27T21:29:17.042Z,5.47
2018-07-27T21:31:46.566Z,5.13
2018-07-27T21:34:15.684Z,5.57
2018-07-27T21:36:44.699Z,5.90
2018-07-27T21:39:14.951Z,5.43
2018-07-27T21:41:44.064Z,5.60
2018-07-27T21:44:13.144Z,5.80
2018-07-27T21:46:42.752Z,6.00
2018-07-27T21:49:11.803Z,5.83
2018-07-27T21:51:40.962Z,6.00
2018-07-27T21:54:10.166Z,6.03
2018-07-27T21:56:49.085Z,5.53
2018-07-27T21:59:19.648Z,5.67
2018-07-27T22:01:48.818Z,5.60
2018-07-27T22:04:17.870Z,5.90
2018-07-27T22:06:47.285Z,5.83
2018-07-27T22:09:16.281Z,5.80
2018-07-27T22:11:45.497Z,6.70
2018-07-27T22:14:14.909Z,6.40
2018-07-27T22:17:46.996Z,5.80
2018-07-27T22:20:16.447Z,8.30
2018-07-27T22:22:45.482Z,7.97
2018-07-27T22:25:14.620Z,6.60
2018-07-27T22:27:45.801Z,7.60
2018-07-27T22:30:15.376Z,7.67
2018-07-27T22:32:44.534Z,8.00
2018-07-27T22:35:14.126Z,7.47
2018-07-27T22:37:43.140Z,8.07
2018-07-27T22:40:12.605Z,7.23
2018-07-27T22:42:42.035Z,6.17
2018-07-27T22:45:11.790Z,6.30
2018-07-27T22:47:41.533Z,6.50
2018-07-27T22:50:11.380Z,5.90
2018-07-27T22:52:41.418Z,6.50
2018-07-27T22:55:12.488Z,6.43
2018-07-27T22:57:42.821Z,9.17
2018-07-27T23:00:14.358Z,6.70
2018-07-27T23:02:44.221Z,9.60
2018-07-27T23:05:13.877Z,7.40
2018-07-27T23:07:42.941Z,7.23
2018-07-27T23:10:12.345Z,9.17
2018-07-27T23:12:41.953Z,7.30
2018-07-27T23:15:12.848Z,6.93
2018-07-27T23:17:42.077Z,7.33
2018-07-27T23:20:14.621Z,8.57
2018-07-27T23:22:44.696Z,7.23
2018-07-27T23:25:13.800Z,7.67
2018-07-27T23:27:42.766Z,8.70
2018-07-27T23:30:13.639Z,9.07
2018-07-27T23:32:42.924Z,8.97
2018-07-27T23:35:12.241Z,8.57
2018-07-27T23:37:41.648Z,8.90
2018-07-27T23:40:10.637Z,8.60
2018-07-27T23:42:40.700Z,8.87
2018-07-27T23:45:10.805Z,8.33
2018-07-27T23:47:39.984Z,8.60
2018-07-27T23:50:09.241Z,9.60
2018-07-27T23:52:38.880Z,8.30
2018-07-27T23:55:07.976Z,8.73
2018-07-27T23:57:36.911Z,8.27
